Terminal Aerodrome Forecast
Issued by NWS

Home | Current Version | Previous Version | Graphics & Text | Print | Product List | Glossary On
Versions: 1 2 3 4 5 6 7 8 9 10 11 12 13 14 15 16 17 18
007
FTUS43 KMPX 071137
TAFRWF
TAF
KRWF 071137Z 0712/0812 27018G25KT P6SM SCT020
     FM071700 29020G28KT P6SM BKN035 OVC050
     FM080300 29018G25KT P6SM BKN030=

USA.gov is the U.S. government's official web portal to all federal, state and local government web resources and services.